sensor_id;sensor_type;location;lat;lon;timestamp;temperature;humidity
69626;DHT22;56847;51.984;5.088;2022-10-31T05:57:22;13.10;78.20
69626;DHT22;56847;51.984;5.088;2022-10-31T06:00:07;13.10;78.40
69626;DHT22;56847;51.984;5.088;2022-10-31T06:03:08;13.10;78.40
69626;DHT22;56847;51.984;5.088;2022-10-31T06:05:44;13.10;78.40
69626;DHT22;56847;51.984;5.088;2022-10-31T06:08:18;13.10;78.50
69626;DHT22;56847;51.984;5.088;2022-10-31T06:10:45;13.10;78.70
69626;DHT22;56847;51.984;5.088;2022-10-31T06:13:14;13.10;78.80
69626;DHT22;56847;51.984;5.088;2022-10-31T06:15:49;13.10;79.00
69626;DHT22;56847;51.984;5.088;2022-10-31T06:18:19;13.10;79.00
69626;DHT22;56847;51.984;5.088;2022-10-31T06:20:50;13.10;78.90
69626;DHT22;56847;51.984;5.088;2022-10-31T06:23:17;13.10;79.00
69626;DHT22;56847;51.984;5.088;2022-10-31T06:25:50;13.10;79.00
69626;DHT22;56847;51.984;5.088;2022-10-31T06:28:17;13.10;79.00
69626;DHT22;56847;51.984;5.088;2022-10-31T06:30:50;13.10;79.00
69626;DHT22;56847;51.984;5.088;2022-10-31T06:33:18;13.10;79.00
69626;DHT22;56847;51.984;5.088;2022-10-31T06:35:54;13.10;79.00
69626;DHT22;56847;51.984;5.088;2022-10-31T06:38:22;13.10;79.00
69626;DHT22;56847;51.984;5.088;2022-10-31T06:40:48;13.10;79.00
69626;DHT22;56847;51.984;5.088;2022-10-31T06:43:21;13.10;79.00
69626;DHT22;56847;51.984;5.088;2022-10-31T06:45:55;13.10;79.10
69626;DHT22;56847;51.984;5.088;2022-10-31T06:48:34;13.10;79.20
69626;DHT22;56847;51.984;5.088;2022-10-31T06:51:20;13.20;79.40
69626;DHT22;56847;51.984;5.088;2022-10-31T06:53:49;13.20;79.40
69626;DHT22;56847;51.984;5.088;2022-10-31T06:56:17;13.20;79.50
69626;DHT22;56847;51.984;5.088;2022-10-31T06:58:48;13.20;79.70
69626;DHT22;56847;51.984;5.088;2022-10-31T07:01:18;13.20;79.90
69626;DHT22;56847;51.984;5.088;2022-10-31T07:03:46;13.20;79.80
69626;DHT22;56847;51.984;5.088;2022-10-31T07:06:13;13.30;79.90
69626;DHT22;56847;51.984;5.088;2022-10-31T07:08:43;13.30;79.80
69626;DHT22;56847;51.984;5.088;2022-10-31T07:11:09;13.30;79.90
69626;DHT22;56847;51.984;5.088;2022-10-31T07:13:38;13.40;80.00
69626;DHT22;56847;51.984;5.088;2022-10-31T07:16:07;13.40;80.00
69626;DHT22;56847;51.984;5.088;2022-10-31T07:18:35;13.50;80.00
69626;DHT22;56847;51.984;5.088;2022-10-31T07:21:03;13.50;79.90
69626;DHT22;56847;51.984;5.088;2022-10-31T07:23:30;13.60;79.90
69626;DHT22;56847;51.984;5.088;2022-10-31T07:26:27;13.60;79.80
69626;DHT22;56847;51.984;5.088;2022-10-31T07:28:54;13.60;79.70
69626;DHT22;56847;51.984;5.088;2022-10-31T07:31:23;13.70;79.80
69626;DHT22;56847;51.984;5.088;2022-10-31T07:33:53;13.70;79.70
69626;DHT22;56847;51.984;5.088;2022-10-31T07:36:40;13.80;79.60
69626;DHT22;56847;51.984;5.088;2022-10-31T07:39:07;13.80;79.70
69626;DHT22;56847;51.984;5.088;2022-10-31T07:41:35;13.80;79.80
69626;DHT22;56847;51.984;5.088;2022-10-31T07:44:01;13.90;79.70
69626;DHT22;56847;51.984;5.088;2022-10-31T07:46:28;13.90;79.70
69626;DHT22;56847;51.984;5.088;2022-10-31T07:49:14;14.00;79.70
69626;DHT22;56847;51.984;5.088;2022-10-31T07:52:10;14.00;79.70
69626;DHT22;56847;51.984;5.088;2022-10-31T07:54:54;14.10;79.80
69626;DHT22;56847;51.984;5.088;2022-10-31T07:57:23;14.20;79.80
69626;DHT22;56847;51.984;5.088;2022-10-31T07:59:51;14.20;79.80
69626;DHT22;56847;51.984;5.088;2022-10-31T08:02:18;14.30;79.80
69626;DHT22;56847;51.984;5.088;2022-10-31T08:04:48;14.40;79.80
69626;DHT22;56847;51.984;5.088;2022-10-31T08:07:36;14.50;80.00
69626;DHT22;56847;51.984;5.088;2022-10-31T08:10:07;14.60;80.10
69626;DHT22;56847;51.984;5.088;2022-10-31T08:12:34;14.70;80.10
69626;DHT22;56847;51.984;5.088;2022-10-31T08:15:03;14.80;80.10
69626;DHT22;56847;51.984;5.088;2022-10-31T08:17:30;14.80;80.10
69626;DHT22;56847;51.984;5.088;2022-10-31T08:19:59;14.90;80.10
69626;DHT22;56847;51.984;5.088;2022-10-31T08:22:31;15.00;80.10
69626;DHT22;56847;51.984;5.088;2022-10-31T08:24:58;15.10;80.10
69626;DHT22;56847;51.984;5.088;2022-10-31T08:27:26;15.20;80.10
69626;DHT22;56847;51.984;5.088;2022-10-31T08:29:55;15.20;79.90
69626;DHT22;56847;51.984;5.088;2022-10-31T08:32:22;15.20;79.90
69626;DHT22;56847;51.984;5.088;2022-10-31T08:34:52;15.30;79.70
69626;DHT22;56847;51.984;5.088;2022-10-31T08:37:39;15.30;79.50
69626;DHT22;56847;51.984;5.088;2022-10-31T08:40:07;15.30;79.30
69626;DHT22;56847;51.984;5.088;2022-10-31T08:42:34;15.30;79.40
69626;DHT22;56847;51.984;5.088;2022-10-31T08:45:01;15.30;79.40
69626;DHT22;56847;51.984;5.088;2022-10-31T08:47:30;15.40;79.50
69626;DHT22;56847;51.984;5.088;2022-10-31T08:49:57;15.40;79.60
69626;DHT22;56847;51.984;5.088;2022-10-31T08:52:24;15.50;79.60
69626;DHT22;56847;51.984;5.088;2022-10-31T08:55:12;15.60;79.50
69626;DHT22;56847;51.984;5.088;2022-10-31T08:57:58;15.60;79.50
69626;DHT22;56847;51.984;5.088;2022-10-31T09:00:34;15.70;79.50
69626;DHT22;56847;51.984;5.088;2022-10-31T09:03:23;15.70;79.30
69626;DHT22;56847;51.984;5.088;2022-10-31T09:05:50;15.80;79.40
69626;DHT22;56847;51.984;5.088;2022-10-31T09:08:21;15.90;79.50
69626;DHT22;56847;51.984;5.088;2022-10-31T09:10:48;16.00;79.50
69626;DHT22;56847;51.984;5.088;2022-10-31T09:13:21;16.10;79.40
69626;DHT22;56847;51.984;5.088;2022-10-31T09:16:10;16.20;79.10
69626;DHT22;56847;51.984;5.088;2022-10-31T09:18:37;16.20;78.70
69626;DHT22;56847;51.984;5.088;2022-10-31T09:21:04;16.20;78.60
69626;DHT22;56847;51.984;5.088;2022-10-31T09:23:31;16.20;78.60
69626;DHT22;56847;51.984;5.088;2022-10-31T09:26:00;16.20;78.60
69626;DHT22;56847;51.984;5.088;2022-10-31T09:28:27;16.30;78.70
69626;DHT22;56847;51.984;5.088;2022-10-31T09:30:59;16.30;78.60
69626;DHT22;56847;51.984;5.088;2022-10-31T09:33:58;16.30;78.60
69626;DHT22;56847;51.984;5.088;2022-10-31T09:36:40;16.40;78.60
69626;DHT22;56847;51.984;5.088;2022-10-31T09:39:18;16.40;78.60
69626;DHT22;56847;51.984;5.088;2022-10-31T09:50:54;16.70;78.40
69626;DHT22;56847;51.984;5.088;2022-10-31T09:53:51;16.80;78.20
69626;DHT22;56847;51.984;5.088;2022-10-31T09:56:23;16.90;78.20
69626;DHT22;56847;51.984;5.088;2022-10-31T09:58:59;17.00;78.10
69626;DHT22;56847;51.984;5.088;2022-10-31T10:01:43;17.10;77.80
69626;DHT22;56847;51.984;5.088;2022-10-31T10:04:33;17.20;77.60
69626;DHT22;56847;51.984;5.088;2022-10-31T10:07:29;17.30;77.30
69626;DHT22;56847;51.984;5.088;2022-10-31T10:10:20;17.30;77.20
69626;DHT22;56847;51.984;5.088;2022-10-31T10:16:06;17.30;77.10
69626;DHT22;56847;51.984;5.088;2022-10-31T10:21:33;17.50;77.30
69626;DHT22;56847;51.984;5.088;2022-10-31T10:29:52;17.70;77.00
69626;DHT22;56847;51.984;5.088;2022-10-31T10:32:30;17.80;77.00
69626;DHT22;56847;51.984;5.088;2022-10-31T10:35:11;17.90;77.00
69626;DHT22;56847;51.984;5.088;2022-10-31T10:37:44;18.00;76.90
69626;DHT22;56847;51.984;5.088;2022-10-31T10:40:18;18.00;76.90
69626;DHT22;56847;51.984;5.088;2022-10-31T11:00:47;18.30;75.90
69626;DHT22;56847;51.984;5.088;2022-10-31T11:03:14;18.30;75.80
69626;DHT22;56847;51.984;5.088;2022-10-31T11:11:11;18.40;75.80
69626;DHT22;56847;51.984;5.088;2022-10-31T11:13:41;18.50;75.80
69626;DHT22;56847;51.984;5.088;2022-10-31T11:16:36;18.50;75.80
69626;DHT22;56847;51.984;5.088;2022-10-31T11:19:17;18.60;75.80
69626;DHT22;56847;51.984;5.088;2022-10-31T11:21:46;18.70;75.40
69626;DHT22;56847;51.984;5.088;2022-10-31T11:24:24;18.70;75.20
69626;DHT22;56847;51.984;5.088;2022-10-31T11:27:09;18.80;75.20
69626;DHT22;56847;51.984;5.088;2022-10-31T11:29:38;18.80;74.90
69626;DHT22;56847;51.984;5.088;2022-10-31T11:32:05;18.90;75.00
69626;DHT22;56847;51.984;5.088;2022-10-31T11:34:37;18.90;74.60
69626;DHT22;56847;51.984;5.088;2022-10-31T11:37:20;18.90;74.30
69626;DHT22;56847;51.984;5.088;2022-10-31T11:39:53;18.90;73.90
69626;DHT22;56847;51.984;5.088;2022-10-31T11:42:37;18.80;74.00
69626;DHT22;56847;51.984;5.088;2022-10-31T11:47:53;18.80;73.90
69626;DHT22;56847;51.984;5.088;2022-10-31T11:50:31;18.70;74.10
69626;DHT22;56847;51.984;5.088;2022-10-31T11:52:59;18.70;74.20
69626;DHT22;56847;51.984;5.088;2022-10-31T11:55:36;18.70;74.30
69626;DHT22;56847;51.984;5.088;2022-10-31T11:58:04;18.70;74.40
69626;DHT22;56847;51.984;5.088;2022-10-31T12:00:37;18.70;74.30
69626;DHT22;56847;51.984;5.088;2022-10-31T12:06:01;18.70;74.40
69626;DHT22;56847;51.984;5.088;2022-10-31T12:08:31;18.70;74.40
69626;DHT22;56847;51.984;5.088;2022-10-31T12:26:30;18.70;75.00
69626;DHT22;56847;51.984;5.088;2022-10-31T12:42:01;19.30;73.90
69626;DHT22;56847;51.984;5.088;2022-10-31T12:48:06;19.40;73.50
69626;DHT22;56847;51.984;5.088;2022-10-31T13:00:21;19.50;73.20
69626;DHT22;56847;51.984;5.088;2022-10-31T13:05:48;19.50;73.00
69626;DHT22;56847;51.984;5.088;2022-10-31T13:08:20;19.50;72.80
69626;DHT22;56847;51.984;5.088;2022-10-31T13:10:53;19.40;72.90
69626;DHT22;56847;51.984;5.088;2022-10-31T13:13:40;19.40;73.00
69626;DHT22;56847;51.984;5.088;2022-10-31T13:16:18;19.40;73.10
69626;DHT22;56847;51.984;5.088;2022-10-31T13:19:07;19.40;72.90
69626;DHT22;56847;51.984;5.088;2022-10-31T13:21:50;19.40;72.90
69626;DHT22;56847;51.984;5.088;2022-10-31T13:24:23;19.30;73.10
69626;DHT22;56847;51.984;5.088;2022-10-31T13:27:04;19.30;73.20
69626;DHT22;56847;51.984;5.088;2022-10-31T13:29:42;19.30;73.20
69626;DHT22;56847;51.984;5.088;2022-10-31T13:32:11;19.20;73.20
69626;DHT22;56847;51.984;5.088;2022-10-31T13:34:50;19.10;73.50
69626;DHT22;56847;51.984;5.088;2022-10-31T13:43:14;19.00;73.80
69626;DHT22;56847;51.984;5.088;2022-10-31T13:45:49;19.00;73.80
69626;DHT22;56847;51.984;5.088;2022-10-31T13:51:05;18.90;74.20
69626;DHT22;56847;51.984;5.088;2022-10-31T13:56:37;19.00;74.20
69626;DHT22;56847;51.984;5.088;2022-10-31T14:01:47;18.90;74.30
69626;DHT22;56847;51.984;5.088;2022-10-31T14:04:22;18.90;74.40
69626;DHT22;56847;51.984;5.088;2022-10-31T14:10:24;18.90;74.50
69626;DHT22;56847;51.984;5.088;2022-10-31T14:15:56;18.80;74.80
69626;DHT22;56847;51.984;5.088;2022-10-31T14:18:38;18.80;74.90
69626;DHT22;56847;51.984;5.088;2022-10-31T14:23:50;18.90;75.10
69626;DHT22;56847;51.984;5.088;2022-10-31T14:45:52;18.80;75.30
69626;DHT22;56847;51.984;5.088;2022-10-31T14:51:38;18.80;75.40
69626;DHT22;56847;51.984;5.088;2022-10-31T14:54:11;18.80;75.40
69626;DHT22;56847;51.984;5.088;2022-10-31T14:56:50;18.80;75.30
69626;DHT22;56847;51.984;5.088;2022-10-31T14:59:24;18.80;75.40
69626;DHT22;56847;51.984;5.088;2022-10-31T15:01:59;18.70;75.30
69626;DHT22;56847;51.984;5.088;2022-10-31T15:04:31;18.70;75.40
69626;DHT22;56847;51.984;5.088;2022-10-31T15:09:37;18.70;75.40
69626;DHT22;56847;51.984;5.088;2022-10-31T15:14:53;18.70;75.50
69626;DHT22;56847;51.984;5.088;2022-10-31T15:17:20;18.60;75.70
69626;DHT22;56847;51.984;5.088;2022-10-31T15:19:49;18.60;75.70
69626;DHT22;56847;51.984;5.088;2022-10-31T15:22:17;18.60;75.70
69626;DHT22;56847;51.984;5.088;2022-10-31T15:24:53;18.50;75.80
69626;DHT22;56847;51.984;5.088;2022-10-31T15:27:26;18.50;75.90
69626;DHT22;56847;51.984;5.088;2022-10-31T15:29:55;18.50;75.90
69626;DHT22;56847;51.984;5.088;2022-10-31T15:32:29;18.50;75.90
69626;DHT22;56847;51.984;5.088;2022-10-31T15:34:56;18.50;75.90
69626;DHT22;56847;51.984;5.088;2022-10-31T15:37:28;18.50;75.90
69626;DHT22;56847;51.984;5.088;2022-10-31T15:39:55;18.50;75.90
69626;DHT22;56847;51.984;5.088;2022-10-31T15:42:35;18.50;75.90
69626;DHT22;56847;51.984;5.088;2022-10-31T15:45:23;18.40;75.70
69626;DHT22;56847;51.984;5.088;2022-10-31T15:47:56;18.40;75.50
69626;DHT22;56847;51.984;5.088;2022-10-31T15:50:55;18.40;75.40
69626;DHT22;56847;51.984;5.088;2022-10-31T15:53:35;18.40;75.10
69626;DHT22;56847;51.984;5.088;2022-10-31T15:56:09;18.30;75.00
69626;DHT22;56847;51.984;5.088;2022-10-31T15:58:46;18.30;74.90
69626;DHT22;56847;51.984;5.088;2022-10-31T16:01:26;18.20;74.80
69626;DHT22;56847;51.984;5.088;2022-10-31T16:06:32;18.00;75.10
69626;DHT22;56847;51.984;5.088;2022-10-31T16:09:00;18.00;75.30
69626;DHT22;56847;51.984;5.088;2022-10-31T16:11:35;17.90;75.60
69626;DHT22;56847;51.984;5.088;2022-10-31T16:14:15;17.90;75.70
69626;DHT22;56847;51.984;5.088;2022-10-31T16:16:54;17.90;75.90
69626;DHT22;56847;51.984;5.088;2022-10-31T16:19:32;17.80;75.80
69626;DHT22;56847;51.984;5.088;2022-10-31T16:22:11;17.80;75.90
69626;DHT22;56847;51.984;5.088;2022-10-31T16:27:30;17.70;76.00
69626;DHT22;56847;51.984;5.088;2022-10-31T16:32:56;17.60;76.40
69626;DHT22;56847;51.984;5.088;2022-10-31T16:35:34;17.60;76.50
69626;DHT22;56847;51.984;5.088;2022-10-31T16:38:02;17.60;76.60
69626;DHT22;56847;51.984;5.088;2022-10-31T16:40:38;17.60;76.80
69626;DHT22;56847;51.984;5.088;2022-10-31T16:43:11;17.60;77.00
69626;DHT22;56847;51.984;5.088;2022-10-31T16:45:47;17.60;77.00
69626;DHT22;56847;51.984;5.088;2022-10-31T16:48:21;17.60;77.00
69626;DHT22;56847;51.984;5.088;2022-10-31T16:50:50;17.60;76.90
69626;DHT22;56847;51.984;5.088;2022-10-31T16:53:19;17.50;76.90
69626;DHT22;56847;51.984;5.088;2022-10-31T16:55:57;17.50;77.00
69626;DHT22;56847;51.984;5.088;2022-10-31T16:58:30;17.50;77.20
69626;DHT22;56847;51.984;5.088;2022-10-31T17:01:04;17.40;77.10
69626;DHT22;56847;51.984;5.088;2022-10-31T17:03:33;17.40;77.10
69626;DHT22;56847;51.984;5.088;2022-10-31T17:06:09;17.40;77.10
69626;DHT22;56847;51.984;5.088;2022-10-31T17:08:37;17.30;77.00
69626;DHT22;56847;51.984;5.088;2022-10-31T17:11:15;17.30;77.20
69626;DHT22;56847;51.984;5.088;2022-10-31T17:13:43;17.30;77.40
69626;DHT22;56847;51.984;5.088;2022-10-31T17:16:12;17.20;77.40
69626;DHT22;56847;51.984;5.088;2022-10-31T17:18:41;17.20;77.60
69626;DHT22;56847;51.984;5.088;2022-10-31T17:21:21;17.20;77.60
69626;DHT22;56847;51.984;5.088;2022-10-31T17:23:49;17.10;77.60
69626;DHT22;56847;51.984;5.088;2022-10-31T17:26:17;17.10;77.60
69626;DHT22;56847;51.984;5.088;2022-10-31T17:28:44;17.10;77.60
69626;DHT22;56847;51.984;5.088;2022-10-31T17:31:23;17.10;77.60
69626;DHT22;56847;51.984;5.088;2022-10-31T17:33:54;17.10;77.60
69626;DHT22;56847;51.984;5.088;2022-10-31T17:36:32;17.00;77.60
69626;DHT22;56847;51.984;5.088;2022-10-31T17:38:59;17.00;77.70
69626;DHT22;56847;51.984;5.088;2022-10-31T17:41:26;17.00;77.80
69626;DHT22;56847;51.984;5.088;2022-10-31T17:43:54;16.90;77.90
69626;DHT22;56847;51.984;5.088;2022-10-31T17:46:22;16.90;78.00
69626;DHT22;56847;51.984;5.088;2022-10-31T17:48:49;16.90;78.10
69626;DHT22;56847;51.984;5.088;2022-10-31T17:51:19;16.90;78.20
69626;DHT22;56847;51.984;5.088;2022-10-31T17:53:46;16.90;78.30
69626;DHT22;56847;51.984;5.088;2022-10-31T17:56:14;16.80;78.30
69626;DHT22;56847;51.984;5.088;2022-10-31T17:58:41;16.80;78.40
69626;DHT22;56847;51.984;5.088;2022-10-31T18:01:11;16.80;78.40
69626;DHT22;56847;51.984;5.088;2022-10-31T18:03:40;16.80;78.40
69626;DHT22;56847;51.984;5.088;2022-10-31T18:06:08;16.80;78.40
69626;DHT22;56847;51.984;5.088;2022-10-31T18:08:38;16.70;78.50
69626;DHT22;56847;51.984;5.088;2022-10-31T18:11:13;16.70;78.40
69626;DHT22;56847;51.984;5.088;2022-10-31T18:13:41;16.70;78.40
69626;DHT22;56847;51.984;5.088;2022-10-31T18:16:14;16.70;78.60
69626;DHT22;56847;51.984;5.088;2022-10-31T18:18:41;16.70;78.60
69626;DHT22;56847;51.984;5.088;2022-10-31T18:21:09;16.70;78.70
69626;DHT22;56847;51.984;5.088;2022-10-31T18:23:36;16.70;78.70
69626;DHT22;56847;51.984;5.088;2022-10-31T18:26:03;16.60;78.70
69626;DHT22;56847;51.984;5.088;2022-10-31T18:28:31;16.60;78.70
69626;DHT22;56847;51.984;5.088;2022-10-31T18:30:59;16.60;79.00
69626;DHT22;56847;51.984;5.088;2022-10-31T18:33:30;16.60;78.90
69626;DHT22;56847;51.984;5.088;2022-10-31T18:36:04;16.60;78.80
69626;DHT22;56847;51.984;5.088;2022-10-31T18:38:40;16.60;78.80
69626;DHT22;56847;51.984;5.088;2022-10-31T18:41:09;16.60;78.90
69626;DHT22;56847;51.984;5.088;2022-10-31T18:43:40;16.60;78.90
69626;DHT22;56847;51.984;5.088;2022-10-31T18:46:13;16.50;79.00
69626;DHT22;56847;51.984;5.088;2022-10-31T18:48:42;16.50;78.90
69626;DHT22;56847;51.984;5.088;2022-10-31T18:51:11;16.50;78.90
69626;DHT22;56847;51.984;5.088;2022-10-31T18:53:39;16.50;78.80
69626;DHT22;56847;51.984;5.088;2022-10-31T18:56:08;16.50;78.80
69626;DHT22;56847;51.984;5.088;2022-10-31T18:58:36;16.50;78.80
69626;DHT22;56847;51.984;5.088;2022-10-31T19:01:10;16.50;78.60
69626;DHT22;56847;51.984;5.088;2022-10-31T19:03:38;16.50;78.70
69626;DHT22;56847;51.984;5.088;2022-10-31T19:06:07;16.50;78.50
69626;DHT22;56847;51.984;5.088;2022-10-31T19:08:38;16.50;78.50
69626;DHT22;56847;51.984;5.088;2022-10-31T19:11:09;16.50;78.40
69626;DHT22;56847;51.984;5.088;2022-10-31T19:13:38;16.50;78.40
69626;DHT22;56847;51.984;5.088;2022-10-31T19:16:11;16.50;78.50
69626;DHT22;56847;51.984;5.088;2022-10-31T19:18:42;16.40;78.30
69626;DHT22;56847;51.984;5.088;2022-10-31T19:21:12;16.40;78.30
69626;DHT22;56847;51.984;5.088;2022-10-31T19:23:43;16.40;78.40
69626;DHT22;56847;51.984;5.088;2022-10-31T19:26:11;16.40;78.40
69626;DHT22;56847;51.984;5.088;2022-10-31T19:28:41;16.50;78.30
69626;DHT22;56847;51.984;5.088;2022-10-31T19:31:10;16.50;78.10
69626;DHT22;56847;51.984;5.088;2022-10-31T19:33:37;16.50;78.10
69626;DHT22;56847;51.984;5.088;2022-10-31T19:36:10;16.50;78.00
69626;DHT22;56847;51.984;5.088;2022-10-31T19:38:42;16.50;77.90
69626;DHT22;56847;51.984;5.088;2022-10-31T19:41:14;16.50;77.80
69626;DHT22;56847;51.984;5.088;2022-10-31T19:43:44;16.50;77.70
69626;DHT22;56847;51.984;5.088;2022-10-31T19:46:13;16.50;77.50
69626;DHT22;56847;51.984;5.088;2022-10-31T19:49:02;16.50;77.60
69626;DHT22;56847;51.984;5.088;2022-10-31T19:51:29;16.50;77.50
69626;DHT22;56847;51.984;5.088;2022-10-31T19:53:56;16.50;77.30
69626;DHT22;56847;51.984;5.088;2022-10-31T19:56:24;16.50;77.30
69626;DHT22;56847;51.984;5.088;2022-10-31T19:58:53;16.50;77.20
69626;DHT22;56847;51.984;5.088;2022-10-31T20:01:22;16.60;77.10
69626;DHT22;56847;51.984;5.088;2022-10-31T20:03:50;16.50;76.90
69626;DHT22;56847;51.984;5.088;2022-10-31T20:06:21;16.50;76.80
69626;DHT22;56847;51.984;5.088;2022-10-31T20:08:48;16.50;76.90
69626;DHT22;56847;51.984;5.088;2022-10-31T20:11:16;16.60;76.80
69626;DHT22;56847;51.984;5.088;2022-10-31T20:13:46;16.60;76.60
69626;DHT22;56847;51.984;5.088;2022-10-31T20:16:20;16.60;76.60
69626;DHT22;56847;51.984;5.088;2022-10-31T20:18:47;16.60;76.40
69626;DHT22;56847;51.984;5.088;2022-10-31T20:21:18;16.60;76.40
69626;DHT22;56847;51.984;5.088;2022-10-31T20:23:46;16.60;76.40
69626;DHT22;56847;51.984;5.088;2022-10-31T20:26:18;16.60;76.30
69626;DHT22;56847;51.984;5.088;2022-10-31T20:28:48;16.60;76.30
69626;DHT22;56847;51.984;5.088;2022-10-31T20:31:18;16.60;76.10
69626;DHT22;56847;51.984;5.088;2022-10-31T20:33:47;16.60;76.20
69626;DHT22;56847;51.984;5.088;2022-10-31T20:36:14;16.60;76.10
69626;DHT22;56847;51.984;5.088;2022-10-31T20:38:45;16.60;76.00
69626;DHT22;56847;51.984;5.088;2022-10-31T20:41:13;16.60;75.90
69626;DHT22;56847;51.984;5.088;2022-10-31T20:43:41;16.60;75.70
69626;DHT22;56847;51.984;5.088;2022-10-31T20:46:22;16.70;75.70
69626;DHT22;56847;51.984;5.088;2022-10-31T20:48:50;16.70;75.60
69626;DHT22;56847;51.984;5.088;2022-10-31T20:51:19;16.70;75.70
69626;DHT22;56847;51.984;5.088;2022-10-31T20:53:48;16.70;75.50
69626;DHT22;56847;51.984;5.088;2022-10-31T20:56:18;16.70;75.40
69626;DHT22;56847;51.984;5.088;2022-10-31T20:58:48;16.70;75.30
69626;DHT22;56847;51.984;5.088;2022-10-31T21:01:21;16.70;75.30
69626;DHT22;56847;51.984;5.088;2022-10-31T21:03:49;16.70;75.20
69626;DHT22;56847;51.984;5.088;2022-10-31T21:06:17;16.60;75.20
69626;DHT22;56847;51.984;5.088;2022-10-31T21:08:49;16.60;75.20
69626;DHT22;56847;51.984;5.088;2022-10-31T21:11:18;16.60;75.20
69626;DHT22;56847;51.984;5.088;2022-10-31T21:13:46;16.60;75.00
69626;DHT22;56847;51.984;5.088;2022-10-31T21:16:20;16.60;74.90
69626;DHT22;56847;51.984;5.088;2022-10-31T21:18:48;16.60;75.00
69626;DHT22;56847;51.984;5.088;2022-10-31T21:21:19;16.60;74.90
69626;DHT22;56847;51.984;5.088;2022-10-31T21:23:51;16.50;74.90
69626;DHT22;56847;51.984;5.088;2022-10-31T21:26:20;16.50;74.90
69626;DHT22;56847;51.984;5.088;2022-10-31T21:28:48;16.50;74.80
69626;DHT22;56847;51.984;5.088;2022-10-31T21:31:17;16.50;74.90
69626;DHT22;56847;51.984;5.088;2022-10-31T21:33:44;16.50;74.80
69626;DHT22;56847;51.984;5.088;2022-10-31T21:36:15;16.50;74.90
69626;DHT22;56847;51.984;5.088;2022-10-31T21:38:41;16.50;74.70
69626;DHT22;56847;51.984;5.088;2022-10-31T21:41:14;16.50;74.70
69626;DHT22;56847;51.984;5.088;2022-10-31T21:43:43;16.50;74.70
69626;DHT22;56847;51.984;5.088;2022-10-31T21:46:13;16.50;74.60
69626;DHT22;56847;51.984;5.088;2022-10-31T21:48:41;16.50;74.70
69626;DHT22;56847;51.984;5.088;2022-10-31T21:51:15;16.50;74.70
69626;DHT22;56847;51.984;5.088;2022-10-31T21:53:43;16.50;74.60
69626;DHT22;56847;51.984;5.088;2022-10-31T21:56:28;16.50;74.60
69626;DHT22;56847;51.984;5.088;2022-10-31T21:58:55;16.50;74.60
69626;DHT22;56847;51.984;5.088;2022-10-31T22:01:24;16.50;74.50
69626;DHT22;56847;51.984;5.088;2022-10-31T22:03:52;16.50;74.50
69626;DHT22;56847;51.984;5.088;2022-10-31T22:06:19;16.50;74.50
69626;DHT22;56847;51.984;5.088;2022-10-31T22:08:46;16.50;74.40
69626;DHT22;56847;51.984;5.088;2022-10-31T22:11:17;16.50;74.30
69626;DHT22;56847;51.984;5.088;2022-10-31T22:13:47;16.50;74.30
69626;DHT22;56847;51.984;5.088;2022-10-31T22:16:17;16.50;74.40
69626;DHT22;56847;51.984;5.088;2022-10-31T22:18:44;16.50;74.40
69626;DHT22;56847;51.984;5.088;2022-10-31T22:21:17;16.50;74.30
69626;DHT22;56847;51.984;5.088;2022-10-31T22:23:48;16.60;74.30
69626;DHT22;56847;51.984;5.088;2022-10-31T22:26:16;16.60;74.40
69626;DHT22;56847;51.984;5.088;2022-10-31T22:28:46;16.60;74.20
69626;DHT22;56847;51.984;5.088;2022-10-31T22:31:15;16.70;74.30
69626;DHT22;56847;51.984;5.088;2022-10-31T22:33:44;16.70;74.10
69626;DHT22;56847;51.984;5.088;2022-10-31T22:36:13;16.70;74.10
69626;DHT22;56847;51.984;5.088;2022-10-31T22:38:41;16.70;74.00
69626;DHT22;56847;51.984;5.088;2022-10-31T22:41:11;16.80;74.10
69626;DHT22;56847;51.984;5.088;2022-10-31T22:43:38;16.80;74.10
69626;DHT22;56847;51.984;5.088;2022-10-31T22:46:08;16.80;74.10
69626;DHT22;56847;51.984;5.088;2022-10-31T22:48:44;16.80;74.00
69626;DHT22;56847;51.984;5.088;2022-10-31T22:51:14;16.80;74.10
69626;DHT22;56847;51.984;5.088;2022-10-31T22:53:42;16.80;74.00
69626;DHT22;56847;51.984;5.088;2022-10-31T22:56:13;16.80;74.10
69626;DHT22;56847;51.984;5.088;2022-10-31T22:58:40;16.90;74.10
69626;DHT22;56847;51.984;5.088;2022-10-31T23:01:09;16.90;74.10
69626;DHT22;56847;51.984;5.088;2022-10-31T23:03:37;16.90;74.10
69626;DHT22;56847;51.984;5.088;2022-10-31T23:06:06;16.90;74.10
69626;DHT22;56847;51.984;5.088;2022-10-31T23:08:35;16.90;74.10
69626;DHT22;56847;51.984;5.088;2022-10-31T23:13:40;16.90;74.20
69626;DHT22;56847;51.984;5.088;2022-10-31T23:16:26;16.90;74.20
69626;DHT22;56847;51.984;5.088;2022-10-31T23:18:53;16.90;74.20
69626;DHT22;56847;51.984;5.088;2022-10-31T23:21:20;16.90;74.20
69626;DHT22;56847;51.984;5.088;2022-10-31T23:24:07;16.90;74.30
69626;DHT22;56847;51.984;5.088;2022-10-31T23:26:35;17.00;74.40
69626;DHT22;56847;51.984;5.088;2022-10-31T23:29:20;17.00;74.40
69626;DHT22;56847;51.984;5.088;2022-10-31T23:31:47;17.00;74.50
69626;DHT22;56847;51.984;5.088;2022-10-31T23:34:15;16.90;74.50
69626;DHT22;56847;51.984;5.088;2022-10-31T23:36:42;17.00;74.50
69626;DHT22;56847;51.984;5.088;2022-10-31T23:39:08;17.00;74.60
69626;DHT22;56847;51.984;5.088;2022-10-31T23:41:35;17.00;74.60
69626;DHT22;56847;51.984;5.088;2022-10-31T23:44:02;17.00;74.70
69626;DHT22;56847;51.984;5.088;2022-10-31T23:46:29;17.00;74.70
69626;DHT22;56847;51.984;5.088;2022-10-31T23:48:56;17.00;74.80
69626;DHT22;56847;51.984;5.088;2022-10-31T23:51:24;17.00;74.80
69626;DHT22;56847;51.984;5.088;2022-10-31T23:53:51;17.00;74.90
69626;DHT22;56847;51.984;5.088;2022-10-31T23:56:17;17.00;75.00
69626;DHT22;56847;51.984;5.088;2022-10-31T23:58:45;17.00;74.90
